Time;durP1;ratioP1;P1;durP2;ratioP2;P2;SDS_P1;SDS_P2;PMS_P1;PMS_P2;Temp;Humidity;BMP_temperature;BMP_pressure;BME280_temperature;BME280_humidity;BME280_pressure;Samples;Min_cycle;Max_cycle;Signal;HPM_P1;HPM_P2
2023/12/28 00:01:51;;;;;;;6.90;0.30;;;;;;;-5.09;74.50;101332.59;5038469;28;20084;-73
2023/12/28 00:04:18;;;;;;;2.25;0.30;;;;;;;-5.10;74.52;101326.63;5042516;28;20123;-74
2023/12/28 00:06:45;;;;;;;4.68;0.30;;;;;;;-5.11;74.76;101319.75;5042064;28;20131;-74
2023/12/28 00:09:12;;;;;;;3.25;0.22;;;;;;;-5.10;74.69;101318.06;5042588;28;20108;-74
2023/12/28 00:11:39;;;;;;;4.53;0.52;;;;;;;-5.10;74.72;101320.63;5042096;28;20772;-73
2023/12/28 00:14:07;;;;;;;2.53;0.30;;;;;;;-5.10;74.75;101318.06;5042534;28;20107;-73
2023/12/28 00:16:37;;;;;;;2.58;0.45;;;;;;;-5.09;74.70;101317.28;5041584;28;20084;-74
2023/12/28 00:19:04;;;;;;;5.50;0.95;;;;;;;-5.10;74.83;101300.22;5039217;28;20045;-74
2023/12/28 00:21:31;;;;;;;0.55;0.15;;;;;;;-5.10;74.54;101290.00;5041549;28;20479;-70
2023/12/28 00:23:58;;;;;;;2.97;0.38;;;;;;;-5.11;74.92;101286.59;5037928;28;20099;-70
2023/12/28 00:26:25;;;;;;;0.95;0.20;;;;;;;-5.09;74.52;101296.88;5039950;28;20146;-69
2023/12/28 00:28:52;;;;;;;2.47;0.40;;;;;;;-5.13;74.78;101285.63;5041702;28;20076;-69
2023/12/28 00:31:20;;;;;;;3.90;0.30;;;;;;;-5.11;74.79;101298.47;5036005;28;20084;-74
2023/12/28 00:33:47;;;;;;;1.33;0.20;;;;;;;-5.11;74.54;101293.38;5038143;28;20110;-72
2023/12/28 00:36:14;;;;;;;2.90;0.30;;;;;;;-5.13;74.34;101280.53;5042678;28;20496;-72
2023/12/28 00:38:41;;;;;;;5.20;0.28;;;;;;;-5.12;74.43;101281.44;5039700;28;20102;-74
2023/12/28 00:41:08;;;;;;;1.33;0.32;;;;;;;-5.14;74.62;101267.72;5038154;28;20080;-72
2023/12/28 00:43:35;;;;;;;1.85;0.30;;;;;;;-5.12;74.46;101271.22;5040722;28;20119;-73
2023/12/28 00:46:03;;;;;;;1.98;0.30;;;;;;;-5.13;74.47;101272.88;5042219;28;20120;-72
2023/12/28 00:48:31;;;;;;;4.78;0.20;;;;;;;-5.14;74.59;101283.03;5039913;28;20091;-72
2023/12/28 00:50:58;;;;;;;0.65;0.20;;;;;;;-5.14;74.37;101289.00;5041984;28;20072;-72
2023/12/28 00:53:26;;;;;;;1.75;0.20;;;;;;;-5.15;74.60;101289.81;5040103;28;20144;-73
2023/12/28 00:55:53;;;;;;;1.63;0.28;;;;;;;-5.16;74.08;101282.94;5041557;28;20518;-72
2023/12/28 00:58:20;;;;;;;4.07;0.50;;;;;;;-5.16;74.38;101276.97;5039634;28;20458;-72
2023/12/28 01:00:47;;;;;;;3.33;0.30;;;;;;;-5.18;74.47;101265.81;5040668;28;20544;-72
2023/12/28 01:03:14;;;;;;;0.77;0.20;;;;;;;-5.18;74.34;101273.47;5038531;28;20141;-73
2023/12/28 01:05:43;;;;;;;5.63;1.00;;;;;;;-5.17;74.62;101283.75;5039926;28;20132;-73
2023/12/28 01:08:09;;;;;;;1.90;0.25;;;;;;;-5.19;74.47;101287.00;5038237;28;20073;-72
2023/12/28 01:10:36;;;;;;;4.05;0.55;;;;;;;-5.19;74.15;101287.00;5041238;28;20127;-73
2023/12/28 01:13:04;;;;;;;3.10;0.30;;;;;;;-5.20;74.44;101267.41;5039261;28;20049;-72
2023/12/28 01:15:31;;;;;;;0.88;0.20;;;;;;;-5.20;74.32;101267.41;5041563;28;20049;-72
2023/12/28 01:17:58;;;;;;;1.75;0.30;;;;;;;-5.21;74.62;101255.44;5046974;28;20052;-72
2023/12/28 01:20:25;;;;;;;4.57;0.32;;;;;;;-5.22;74.14;101253.69;5043051;28;20569;-73
2023/12/28 01:22:53;;;;;;;3.03;0.30;;;;;;;-5.21;74.35;101253.78;5043956;28;20562;-73
2023/12/28 01:25:20;;;;;;;5.38;1.17;;;;;;;-5.21;74.37;101250.34;5043073;28;20088;-72
2023/12/28 01:27:47;;;;;;;3.03;1.05;;;;;;;-5.22;74.44;101244.38;5045299;28;20081;-72
2023/12/28 01:30:16;;;;;;;3.13;0.20;;;;;;;-5.22;74.39;101244.38;5045839;28;20134;-73
2023/12/28 01:32:43;;;;;;;2.65;0.20;;;;;;;-5.24;74.31;101235.78;5044034;28;20087;-67
2023/12/28 01:35:10;;;;;;;1.50;0.20;;;;;;;-5.24;74.34;101224.69;5042330;28;20129;-67
2023/12/28 01:37:37;;;;;;;3.03;0.60;;;;;;;-5.24;74.34;101224.69;5040460;28;20586;-68
2023/12/28 01:40:07;;;;;;;2.97;0.20;;;;;;;-5.24;74.29;101229.78;5044047;28;20049;-68
2023/12/28 01:42:35;;;;;;;3.08;0.30;;;;;;;-5.25;74.40;101225.50;5042507;28;20071;-73
2023/12/28 01:45:03;;;;;;;3.60;0.95;;;;;;;-5.27;74.28;101202.44;5044723;28;20084;-72
2023/12/28 01:47:31;;;;;;;1.33;0.30;;;;;;;-5.26;74.12;101205.91;5047243;28;20084;-73
2023/12/28 01:49:59;;;;;;;1.15;0.30;;;;;;;-5.27;74.61;101199.91;5039599;28;20135;-73
2023/12/28 01:52:25;;;;;;;2.83;0.35;;;;;;;-5.27;74.47;101191.38;5043267;28;20128;-72
2023/12/28 01:54:53;;;;;;;0.82;0.30;;;;;;;-5.27;74.53;101178.63;5045170;28;20168;-73
2023/12/28 01:57:21;;;;;;;0.50;0.20;;;;;;;-5.27;74.26;101169.28;5042579;28;20080;-73
2023/12/28 01:59:48;;;;;;;3.65;0.30;;;;;;;-5.27;74.56;101169.28;5044206;28;20072;-72
2023/12/28 02:02:16;;;;;;;2.78;0.22;;;;;;;-5.26;74.32;101162.53;5039370;28;20041;-72
2023/12/28 02:04:43;;;;;;;2.10;0.30;;;;;;;-5.28;74.40;101161.59;5045174;28;20570;-72
2023/12/28 02:07:10;;;;;;;2.63;0.60;;;;;;;-5.28;74.35;101157.34;5040456;28;20085;-72
2023/12/28 02:09:37;;;;;;;5.40;1.02;;;;;;;-5.28;74.34;101167.56;5042905;28;20095;-72
2023/12/28 02:12:05;;;;;;;2.75;0.22;;;;;;;-5.28;74.29;101170.09;5040592;28;21590;-73
2023/12/28 02:14:33;;;;;;;4.10;0.28;;;;;;;-5.28;74.47;101167.56;5041005;28;20133;-73
2023/12/28 02:17:07;;;;;;;3.47;0.30;;;;;;;-5.29;74.49;101160.72;5042223;28;20092;-73
2023/12/28 02:19:45;;;;;;;1.80;0.20;;;;;;;-5.28;74.43;101156.50;5042415;28;20500;-72
2023/12/28 02:22:15;;;;;;;0.90;0.30;;;;;;;-5.32;74.19;101148.69;5041119;28;20338;-72
2023/12/28 02:25:06;;;;;;;2.17;0.30;;;;;;;-5.28;74.26;101141.19;5044139;28;20129;-73
2023/12/28 02:27:33;;;;;;;5.65;0.45;;;;;;;-5.32;74.13;101138.50;5043729;28;20721;-72
2023/12/28 02:30:01;;;;;;;2.15;0.40;;;;;;;-5.32;73.91;101128.28;5041963;28;20139;-72
2023/12/28 02:32:37;;;;;;;0.95;0.25;;;;;;;-5.29;74.17;101132.66;5038520;28;20100;-73
2023/12/28 02:35:14;;;;;;;2.67;0.35;;;;;;;-5.30;74.45;101121.59;5043628;28;20084;-73
2023/12/28 02:37:43;;;;;;;3.20;0.98;;;;;;;-5.31;74.41;101122.38;5039619;28;20128;-73
2023/12/28 02:40:13;;;;;;;0.40;0.30;;;;;;;-5.32;74.25;101100.25;5037425;28;20110;-73
2023/12/28 02:42:40;;;;;;;2.67;0.30;;;;;;;-5.31;74.22;101098.56;5038608;28;20580;-69
2023/12/28 02:45:08;;;;;;;3.58;0.30;;;;;;;-5.32;74.29;101082.38;5043013;28;20714;-69
2023/12/28 02:47:34;;;;;;;1.27;0.50;;;;;;;-5.31;73.93;101080.69;5045506;28;20109;-69
2023/12/28 02:50:01;;;;;;;4.03;0.47;;;;;;;-5.31;74.28;101071.38;5039018;28;20073;-70
2023/12/28 02:52:28;;;;;;;2.25;0.20;;;;;;;-5.31;73.99;101075.59;5039157;28;20738;-69
2023/12/28 02:54:55;;;;;;;0.63;0.25;;;;;;;-5.30;74.39;101067.13;5039975;28;20476;-69
2023/12/28 02:57:24;;;;;;;2.78;0.28;;;;;;;-5.29;74.22;101058.69;5044537;28;20081;-69
2023/12/28 02:59:50;;;;;;;1.83;0.20;;;;;;;-5.30;74.30;101051.84;5041190;28;20116;-69
2023/12/28 03:02:17;;;;;;;0.50;0.20;;;;;;;-5.30;74.13;101042.53;5039513;28;20139;-69
2023/12/28 03:04:44;;;;;;;3.17;0.25;;;;;;;-5.30;74.40;101047.63;5041563;28;20132;-69
2023/12/28 03:07:11;;;;;;;3.70;0.20;;;;;;;-5.28;74.15;101044.28;5039513;28;20129;-70
2023/12/28 03:09:39;;;;;;;3.25;0.38;;;;;;;-5.29;74.21;101033.19;5041843;28;20131;-69
2023/12/28 03:12:07;;;;;;;3.80;0.30;;;;;;;-5.29;74.49;101033.19;5042388;28;20067;-70
2023/12/28 03:14:35;;;;;;;2.67;0.20;;;;;;;-5.28;74.20;101028.97;5040194;28;20061;-69
2023/12/28 03:17:02;;;;;;;7.70;0.40;;;;;;;-5.30;74.11;101024.69;5040048;28;20530;-69
2023/12/28 03:19:29;;;;;;;2.00;0.30;;;;;;;-5.29;74.63;101015.34;5041687;28;20044;-69
2023/12/28 03:21:56;;;;;;;2.15;0.60;;;;;;;-5.28;74.39;101019.63;5040151;28;20072;-69
2023/12/28 03:24:23;;;;;;;4.70;0.40;;;;;;;-5.29;74.35;101017.91;5038735;28;20124;-69
2023/12/28 03:26:50;;;;;;;1.40;0.85;;;;;;;-5.28;74.16;101019.63;5039391;28;20077;-69
2023/12/28 03:29:17;;;;;;;0.90;0.20;;;;;;;-5.29;74.30;101007.69;5041252;28;20155;-69
2023/12/28 03:31:46;;;;;;;4.05;0.30;;;;;;;-5.27;74.26;101000.09;5042020;28;20084;-71
2023/12/28 03:34:13;;;;;;;0.52;0.22;;;;;;;-5.26;74.51;101012.94;5039683;28;20721;-70
2023/12/28 03:36:39;;;;;;;0.30;0.20;;;;;;;-5.26;74.25;101002.72;5038128;28;20136;-69
2023/12/28 03:39:06;;;;;;;1.08;0.50;;;;;;;-5.25;74.36;101006.16;5040978;28;20045;-69
2023/12/28 03:41:33;;;;;;;2.70;0.20;;;;;;;-5.23;74.32;101012.19;5043102;28;20132;-70
2023/12/28 03:44:00;;;;;;;1.27;0.40;;;;;;;-5.23;74.39;101014.75;5041737;28;20844;-69
2023/12/28 03:46:27;;;;;;;2.08;0.13;;;;;;;-5.23;74.27;101002.00;5041731;28;20076;-70
2023/12/28 03:48:56;;;;;;;2.97;0.30;;;;;;;-5.22;74.36;101004.59;5041657;28;20131;-70
2023/12/28 03:51:23;;;;;;;4.20;0.52;;;;;;;-5.20;74.56;100997.91;5040901;28;20087;-70
2023/12/28 03:53:50;;;;;;;3.65;0.30;;;;;;;-5.19;74.37;100986.00;5037632;28;20059;-70
2023/12/28 03:56:23;;;;;;;3.70;0.30;;;;;;;-5.19;74.51;100970.69;5042584;28;20131;-70
2023/12/28 03:58:50;;;;;;;1.67;0.30;;;;;;;-5.18;74.51;100968.25;5039214;28;20069;-70
2023/12/28 04:01:18;;;;;;;0.75;0.40;;;;;;;-5.16;74.54;100968.28;5041351;28;20103;-70
2023/12/28 04:03:45;;;;;;;2.88;0.50;;;;;;;-5.15;74.50;100964.94;5041736;28;20045;-70
2023/12/28 04:06:14;;;;;;;2.35;0.38;;;;;;;-5.13;74.69;100973.53;5039782;28;20057;-70
2023/12/28 04:08:41;;;;;;;1.00;0.20;;;;;;;-5.13;74.37;100963.31;5038048;28;20080;-69
2023/12/28 04:11:08;;;;;;;3.58;0.77;;;;;;;-5.11;74.51;100954.06;5040327;28;20076;-70
2023/12/28 04:13:35;;;;;;;1.38;0.38;;;;;;;-5.09;74.23;100955.00;5039974;28;20084;-70
2023/12/28 04:16:02;;;;;;;0.75;0.30;;;;;;;-5.09;74.81;100955.88;5037474;28;20444;-70
2023/12/28 04:18:29;;;;;;;5.63;0.32;;;;;;;-5.08;74.67;100946.53;5039524;28;20141;-70
2023/12/28 04:20:56;;;;;;;5.30;1.00;;;;;;;-5.05;74.66;100950.91;5040169;28;20131;-70
2023/12/28 04:23:25;;;;;;;4.40;0.20;;;;;;;-5.03;74.84;100941.66;5037954;28;20076;-70
2023/12/28 04:25:51;;;;;;;2.63;0.40;;;;;;;-5.02;74.67;100935.72;5039563;28;20076;-70
2023/12/28 04:28:18;;;;;;;3.72;0.22;;;;;;;-5.01;74.67;100925.59;5039762;28;20092;-70
2023/12/28 04:30:45;;;;;;;5.15;0.40;;;;;;;-5.00;74.69;100922.22;5040592;28;20148;-70
2023/12/28 04:33:12;;;;;;;1.55;0.20;;;;;;;-4.99;74.76;100921.41;5040446;28;20571;-70
2023/12/28 04:35:38;;;;;;;3.10;0.20;;;;;;;-4.97;74.67;100917.25;5042954;28;20157;-69
2023/12/28 04:38:05;;;;;;;2.25;0.30;;;;;;;-4.98;75.11;100896.78;5039423;28;20080;-70
2023/12/28 04:40:34;;;;;;;1.33;0.20;;;;;;;-4.95;74.75;100887.56;5042188;28;20077;-69
2023/12/28 04:43:01;;;;;;;1.45;0.20;;;;;;;-4.92;74.80;100877.50;5040409;28;20048;-70
2023/12/28 04:45:28;;;;;;;1.75;0.25;;;;;;;-4.91;74.65;100874.13;5038719;28;20131;-70
2023/12/28 04:47:55;;;;;;;2.72;0.17;;;;;;;-4.91;74.78;100857.94;5038954;28;20049;-70
2023/12/28 04:50:22;;;;;;;0.95;0.30;;;;;;;-4.89;74.78;100849.56;5038910;28;20095;-70
2023/12/28 04:52:49;;;;;;;2.15;0.10;;;;;;;-4.88;74.74;100841.06;5039169;28;20139;-70
2023/12/28 04:55:16;;;;;;;2.22;0.65;;;;;;;-4.86;75.06;100826.72;5041214;28;20081;-70
2023/12/28 04:57:44;;;;;;;0.88;0.30;;;;;;;-4.86;75.21;100826.72;5039983;28;20133;-70
2023/12/28 05:00:12;;;;;;;3.08;0.20;;;;;;;-4.83;74.69;100814.88;5035134;28;20079;-70
2023/12/28 05:02:39;;;;;;;6.28;1.48;;;;;;;-4.81;75.02;100808.13;5040811;28;20127;-68
2023/12/28 05:05:08;;;;;;;1.60;0.30;;;;;;;-4.82;75.03;100791.09;5036833;28;20080;-69
2023/12/28 05:07:35;;;;;;;2.17;0.10;;;;;;;-4.79;74.95;100781.88;5039218;28;20072;-69
2023/12/28 05:10:02;;;;;;;0.50;0.20;;;;;;;-4.77;75.14;100779.41;5037608;28;20454;-69
2023/12/28 05:12:29;;;;;;;6.10;0.20;;;;;;;-4.76;74.79;100771.78;5040396;28;20128;-69
2023/12/28 05:14:57;;;;;;;1.70;0.30;;;;;;;-4.75;75.11;100750.56;5038951;28;20103;-69
2023/12/28 05:17:23;;;;;;;1.20;0.20;;;;;;;-4.74;75.40;100742.09;5035420;28;20136;-70
2023/12/28 05:19:50;;;;;;;2.35;0.20;;;;;;;-4.71;74.82;100734.53;5038985;28;20129;-70
2023/12/28 05:22:17;;;;;;;6.72;0.50;;;;;;;-4.70;74.90;100735.41;5037191;28;20056;-70
2023/12/28 05:24:44;;;;;;;1.08;0.20;;;;;;;-4.69;74.98;100717.63;5038371;28;20598;-69
2023/12/28 05:27:11;;;;;;;2.05;0.20;;;;;;;-4.68;75.16;100711.69;5037305;28;20085;-70
2023/12/28 05:29:38;;;;;;;1.25;0.20;;;;;;;-4.66;74.82;100727.94;5038350;28;20148;-70
2023/12/28 05:32:07;;;;;;;0.90;0.30;;;;;;;-4.65;75.49;100716.91;5039696;28;20076;-70
2023/12/28 05:34:34;;;;;;;1.50;0.20;;;;;;;-4.63;75.26;100707.63;5038018;28;20482;-69
2023/12/28 05:37:01;;;;;;;4.07;0.20;;;;;;;-4.60;75.21;100701.78;5039067;28;20136;-69
2023/12/28 05:39:28;;;;;;;2.15;0.20;;;;;;;-4.58;75.44;100699.28;5038554;28;20519;-70
2023/12/28 05:41:55;;;;;;;3.10;0.30;;;;;;;-4.57;75.42;100681.47;5040477;28;20127;-69
2023/12/28 05:44:22;;;;;;;1.00;0.50;;;;;;;-4.55;75.23;100679.84;5041479;28;20167;-69
2023/12/28 05:46:48;;;;;;;1.65;0.43;;;;;;;-4.54;75.28;100675.59;5042366;28;20518;-69
2023/12/28 05:49:17;;;;;;;3.47;0.40;;;;;;;-4.52;75.46;100672.28;5036820;28;20080;-70
2023/12/28 05:51:44;;;;;;;4.32;0.20;;;;;;;-4.51;75.65;100674.03;5041583;28;20095;-69
2023/12/28 05:54:11;;;;;;;4.07;0.30;;;;;;;-4.47;75.53;100665.69;5034345;28;20486;-69
2023/12/28 05:56:38;;;;;;;1.33;0.30;;;;;;;-4.47;75.53;100655.47;5037661;28;20095;-70
2023/12/28 05:59:05;;;;;;;1.05;0.10;;;;;;;-4.43;75.82;100661.53;5039806;28;20493;-69
2023/12/28 06:01:32;;;;;;;2.88;0.40;;;;;;;-4.42;75.67;100655.59;5036595;28;20562;-70
2023/12/28 06:03:58;;;;;;;0.50;0.10;;;;;;;-4.40;75.61;100659.09;5040441;28;20080;-70
2023/12/28 06:06:27;;;;;;;2.55;0.25;;;;;;;-4.37;75.88;100661.75;5042759;28;20514;-69
2023/12/28 06:08:54;;;;;;;0.70;0.20;;;;;;;-4.37;75.62;100648.13;5044272;28;20143;-70
2023/12/28 06:11:21;;;;;;;1.35;0.30;;;;;;;-4.34;75.91;100654.19;5041402;28;20067;-69
2023/12/28 06:13:48;;;;;;;1.80;0.20;;;;;;;-4.32;75.99;100656.81;5043326;28;20087;-69
2023/12/28 06:16:15;;;;;;;1.00;0.28;;;;;;;-4.31;75.76;100648.34;5041582;28;20172;-69
2023/12/28 06:18:42;;;;;;;3.72;1.02;;;;;;;-4.29;76.00;100646.72;5039389;28;20084;-69
2023/12/28 06:21:09;;;;;;;6.97;0.40;;;;;;;-4.29;76.09;100647.56;5038969;28;20076;-69
2023/12/28 06:23:38;;;;;;;0.52;0.30;;;;;;;-4.26;75.74;100650.25;5041133;28;20135;-69
2023/12/28 06:26:08;;;;;;;4.43;0.32;;;;;;;-4.23;75.85;100657.16;4984193;28;20132;-69
2023/12/28 06:28:34;;;;;;;2.28;0.20;;;;;;;-4.22;76.25;100657.19;5040381;28;20049;-70
2023/12/28 06:31:03;;;;;;;3.10;0.20;;;;;;;-4.20;76.12;100647.91;5042189;28;20072;-70
2023/12/28 06:33:30;;;;;;;2.15;0.20;;;;;;;-4.18;75.75;100646.28;5041433;28;20053;-69
2023/12/28 06:35:58;;;;;;;1.58;0.20;;;;;;;-4.16;75.99;100648.88;5042085;28;20144;-69
2023/12/28 06:38:25;;;;;;;0.32;0.20;;;;;;;-4.14;76.38;100654.91;5043107;28;20124;-69
2023/12/28 06:40:53;;;;;;;4.00;0.30;;;;;;;-4.13;76.26;100650.66;5040367;28;20041;-69
2023/12/28 06:43:20;;;;;;;4.25;0.40;;;;;;;-4.10;76.21;100641.44;5040812;28;20079;-69
2023/12/28 06:45:47;;;;;;;3.50;0.30;;;;;;;-4.11;75.81;100639.69;5043212;28;20085;-69
2023/12/28 06:48:14;;;;;;;1.13;0.20;;;;;;;-4.06;76.27;100645.81;5044338;28;20081;-70
2023/12/28 06:50:41;;;;;;;3.53;0.20;;;;;;;-4.06;77.00;100635.59;5042142;28;20125;-69
2023/12/28 06:53:08;;;;;;;2.72;0.20;;;;;;;-4.03;76.54;100635.72;5044421;28;20099;-69
2023/12/28 06:55:35;;;;;;;2.90;0.30;;;;;;;-4.02;76.27;100631.47;5036765;28;20129;-69
2023/12/28 06:58:06;;;;;;;2.17;0.82;;;;;;;-3.99;76.21;100632.44;5040205;28;20080;-69
2023/12/28 07:00:32;;;;;;;1.83;0.28;;;;;;;-3.97;76.42;100637.59;5039473;28;20059;-69
2023/12/28 07:02:59;;;;;;;1.50;0.20;;;;;;;-3.95;76.54;100636.84;5041819;28;20475;-69
2023/12/28 07:05:26;;;;;;;0.80;0.20;;;;;;;-3.94;76.22;100636.00;5038360;28;20080;-68
2023/12/28 07:07:53;;;;;;;2.67;0.35;;;;;;;-3.91;76.39;100624.16;5040500;28;20542;-69
2023/12/28 07:10:20;;;;;;;2.58;0.20;;;;;;;-3.90;76.41;100625.88;5037823;28;20077;-69
2023/12/28 07:12:47;;;;;;;1.88;0.30;;;;;;;-3.87;76.67;100623.47;5039437;28;20586;-69
2023/12/28 07:15:15;;;;;;;2.75;0.50;;;;;;;-3.86;76.62;100610.72;5040462;28;20045;-69
2023/12/28 07:17:42;;;;;;;1.10;0.20;;;;;;;-3.84;76.28;100600.56;5038557;28;20055;-68
2023/12/28 07:20:11;;;;;;;6.53;0.70;;;;;;;-3.83;76.21;100582.69;5042402;28;20081;-69
2023/12/28 07:22:38;;;;;;;2.10;0.25;;;;;;;-3.82;76.41;100566.53;5037810;28;20069;-70
2023/12/28 07:25:06;;;;;;;3.55;0.35;;;;;;;-3.79;76.37;100558.09;5037586;28;20136;-70
2023/12/28 07:27:33;;;;;;;4.68;0.20;;;;;;;-3.76;76.45;100561.63;5042923;28;20132;-69
2023/12/28 07:30:01;;;;;;;2.67;0.77;;;;;;;-3.74;76.47;100559.13;5041097;28;20125;-70
2023/12/28 07:32:29;;;;;;;5.72;0.20;;;;;;;-3.72;76.81;100555.78;5038740;28;20064;-69
2023/12/28 07:34:57;;;;;;;5.15;0.20;;;;;;;-3.69;76.78;100556.72;5039878;28;20064;-69
2023/12/28 07:37:23;;;;;;;2.95;0.20;;;;;;;-3.67;76.53;100558.50;5040709;28;20117;-69
2023/12/28 07:39:50;;;;;;;0.70;0.20;;;;;;;-3.66;77.11;100552.56;5036584;28;20670;-69
2023/12/28 07:42:17;;;;;;;1.75;0.20;;;;;;;-3.62;76.95;100539.06;5038121;28;20083;-69
2023/12/28 07:44:45;;;;;;;1.48;0.10;;;;;;;-3.59;77.63;100549.38;5041360;28;20128;-69
2023/12/28 07:47:12;;;;;;;1.00;0.90;;;;;;;-3.57;77.93;100542.59;5040106;28;20064;-69
2023/12/28 07:49:41;;;;;;;4.57;0.25;;;;;;;-3.51;78.61;100545.34;5042421;28;20130;-69
2023/12/28 07:52:08;;;;;;;0.93;0.20;;;;;;;-3.46;78.36;100540.38;5039961;28;20141;-69
2023/12/28 07:54:35;;;;;;;5.28;0.10;;;;;;;-3.41;78.27;100532.84;5038450;28;20050;-68
2023/12/28 07:57:02;;;;;;;2.80;0.13;;;;;;;-3.38;78.74;100533.81;5037171;28;20099;-68
2023/12/28 07:59:28;;;;;;;2.15;0.13;;;;;;;-3.32;78.13;100525.44;5039350;28;20081;-68
2023/12/28 08:01:56;;;;;;;4.97;0.10;;;;;;;-3.28;77.82;100520.47;5039731;28;20148;-68
2023/12/28 08:04:23;;;;;;;1.58;0.20;;;;;;;-3.22;78.86;100516.34;5040899;28;20045;-68
2023/12/28 08:06:51;;;;;;;4.30;1.17;;;;;;;-3.18;78.58;100497.72;5036044;28;20731;-69
2023/12/28 08:09:18;;;;;;;4.07;0.20;;;;;;;-3.15;79.13;100488.44;5036738;28;20088;-69
2023/12/28 08:11:45;;;;;;;2.47;0.82;;;;;;;-3.08;79.12;100482.66;5037047;28;20129;-68
2023/12/28 08:14:12;;;;;;;3.20;0.10;;;;;;;-3.03;79.09;100468.28;5038453;28;20146;-68
2023/12/28 08:16:39;;;;;;;1.27;0.68;;;;;;;-2.98;79.07;100453.06;5036022;28;20132;-68
2023/12/28 08:19:06;;;;;;;3.65;0.13;;;;;;;-2.93;79.28;100448.09;5036913;28;20478;-69
2023/12/28 08:21:33;;;;;;;2.50;0.20;;;;;;;-2.88;79.02;100431.13;5038620;28;20073;-68
2023/12/28 08:24:01;;;;;;;0.55;0.03;;;;;;;-2.85;79.55;100415.84;5037451;28;20092;-68
2023/12/28 08:26:28;;;;;;;1.23;0.25;;;;;;;-2.84;79.96;100409.91;5039366;28;20156;-68
2023/12/28 08:28:55;;;;;;;3.28;0.68;;;;;;;-2.74;80.26;100403.31;5035775;28;20073;-68
2023/12/28 08:31:22;;;;;;;1.20;0.10;;;;;;;-2.69;80.00;100397.47;5039241;28;20037;-70
2023/12/28 08:33:49;;;;;;;3.08;0.10;;;;;;;-2.66;79.50;100377.06;5040006;28;20095;-71
2023/12/28 08:36:17;;;;;;;1.88;0.10;;;;;;;-2.61;80.59;100374.63;5042064;28;20526;-70
2023/12/28 08:38:44;;;;;;;1.58;0.20;;;;;;;-2.55;80.29;100368.78;5043330;28;20041;-70
2023/12/28 08:41:20;;;;;;;10.25;0.40;;;;;;;-2.51;80.66;100361.19;5037955;28;20128;-70
2023/12/28 08:43:47;;;;;;;3.35;0.10;;;;;;;-2.48;81.34;100351.06;5040855;28;20128;-71
2023/12/28 08:46:14;;;;;;;3.05;0.10;;;;;;;-2.42;81.36;100337.53;5038606;28;20392;-71
2023/12/28 08:48:41;;;;;;;0.35;0.10;;;;;;;-2.37;81.31;100329.13;5034709;28;20079;-71
2023/12/28 08:51:08;;;;;;;1.63;0.20;;;;;;;-2.34;80.62;100312.06;5038561;28;20518;-71
2023/12/28 08:53:35;;;;;;;1.70;0.13;;;;;;;-2.29;82.32;100293.38;5036585;28;20132;-71
2023/12/28 08:56:02;;;;;;;2.35;0.40;;;;;;;-2.23;82.25;100284.97;5038056;28;20521;-71
2023/12/28 08:58:30;;;;;;;4.68;0.10;;;;;;;-2.19;82.07;100273.97;5033433;28;20049;-72
2023/12/28 09:00:57;;;;;;;0.25;0.10;;;;;;;-2.14;81.78;100270.66;5039941;28;20121;-71
2023/12/28 09:03:24;;;;;;;0.95;0.10;;;;;;;-2.08;82.95;100261.34;5033495;28;20534;-72
2023/12/28 09:05:51;;;;;;;1.52;0.10;;;;;;;-2.04;83.75;100255.47;5039463;28;20045;-71
2023/12/28 09:08:18;;;;;;;2.83;0.17;;;;;;;-2.00;83.38;100242.72;5035948;28;20511;-71
2023/12/28 09:10:45;;;;;;;1.95;0.10;;;;;;;-1.95;83.01;100235.13;5035943;28;20127;-70
2023/12/28 09:13:16;;;;;;;0.55;0.10;;;;;;;-1.89;83.29;100231.81;5040485;28;20137;-71
2023/12/28 09:15:45;;;;;;;0.10;0.05;;;;;;;-1.87;83.15;100215.66;5039535;28;20051;-70
2023/12/28 09:18:12;;;;;;;0.88;0.03;;;;;;;-1.78;82.95;100220.06;5037704;28;20045;-71
2023/12/28 09:20:40;;;;;;;0.20;0.03;;;;;;;-1.73;83.16;100215.91;5041347;28;20080;-71
2023/12/28 09:23:07;;;;;;;3.25;0.10;;;;;;;-1.68;83.14;100214.28;5039193;28;20621;-70
2023/12/28 09:25:34;;;;;;;1.75;0.17;;;;;;;-1.63;83.15;100202.38;5036739;28;20057;-70
2023/12/28 09:28:07;;;;;;;0.28;0.00;;;;;;;-1.58;82.95;100207.59;5038685;28;20859;-70
2023/12/28 09:30:34;;;;;;;1.30;0.08;;;;;;;-1.54;83.82;100197.44;5040438;28;20124;-71
2023/12/28 09:33:02;;;;;;;1.38;0.30;;;;;;;-1.50;83.88;100182.97;5039939;28;20152;-71
2023/12/28 09:35:29;;;;;;;1.10;0.10;;;;;;;-1.46;84.41;100177.03;5040417;28;20053;-71
2023/12/28 09:37:56;;;;;;;0.80;0.10;;;;;;;-1.42;84.20;100170.25;5039801;28;20103;-70
2023/12/28 09:40:23;;;;;;;2.15;0.10;;;;;;;-1.38;83.82;100165.19;5043699;28;20077;-70
2023/12/28 09:42:58;;;;;;;2.40;0.10;;;;;;;-1.34;83.52;100161.84;5043240;28;20081;-70
2023/12/28 09:45:26;;;;;;;1.38;0.00;;;;;;;-1.30;84.09;100158.47;5041320;28;20064;-69
2023/12/28 09:47:53;;;;;;;1.50;0.10;;;;;;;-1.28;84.68;100138.84;5042208;28;20068;-69
2023/12/28 09:50:26;;;;;;;1.42;0.00;;;;;;;-1.23;84.08;100134.66;5040560;28;20124;-72
2023/12/28 09:52:53;;;;;;;1.85;0.35;;;;;;;-1.19;84.32;100122.72;5036008;28;20049;-73
2023/12/28 09:55:20;;;;;;;0.38;0.00;;;;;;;-1.15;83.88;100118.47;5042629;28;20513;-74
2023/12/28 09:57:47;;;;;;;4.18;0.10;;;;;;;-1.13;84.18;100114.25;5040982;28;20050;-74
2023/12/28 10:00:15;;;;;;;0.35;0.10;;;;;;;-1.12;84.40;100108.25;5038903;28;20053;-73
2023/12/28 10:02:46;;;;;;;1.45;0.10;;;;;;;-1.07;84.11;100112.59;5041221;28;20072;-74
2023/12/28 10:05:14;;;;;;;0.47;0.10;;;;;;;-1.03;83.87;100098.09;5038855;28;20049;-74
2023/12/28 10:07:46;;;;;;;5.20;0.10;;;;;;;-0.99;83.82;100091.31;5044427;28;20041;-74
2023/12/28 10:10:13;;;;;;;0.10;0.00;;;;;;;-0.98;84.13;100083.63;5042381;28;20088;-73
2023/12/28 10:12:40;;;;;;;0.47;0.05;;;;;;;-0.95;84.22;100078.53;5042454;28;20084;-74
2023/12/28 10:15:07;;;;;;;3.05;0.30;;;;;;;-0.91;83.83;100080.31;5043020;28;20096;-73
2023/12/28 10:17:35;;;;;;;0.90;0.10;;;;;;;-0.87;84.14;100061.50;5043370;28;20048;-73
2023/12/28 10:20:06;;;;;;;0.40;0.00;;;;;;;-0.84;84.34;100064.13;5039956;28;20050;-74
2023/12/28 10:22:33;;;;;;;1.65;0.30;;;;;;;-0.81;84.29;100060.72;5042868;28;20052;-74
2023/12/28 10:25:04;;;;;;;0.30;0.08;;;;;;;-0.80;83.86;100044.50;5041731;28;20131;-74
2023/12/28 10:27:31;;;;;;;1.55;0.10;;;;;;;-0.78;83.72;100043.63;5042466;28;20087;-74
2023/12/28 10:29:58;;;;;;;1.77;0.20;;;;;;;-0.72;84.35;100024.00;5042311;28;20076;-73
2023/12/28 10:32:25;;;;;;;0.20;0.10;;;;;;;-0.69;84.86;100026.59;5046574;28;20475;-73
2023/12/28 10:34:54;;;;;;;0.13;0.00;;;;;;;-0.66;84.55;100013.78;5040252;28;21262;-73
2023/12/28 10:37:22;;;;;;;1.15;0.10;;;;;;;-0.63;84.22;100011.25;5042965;28;20046;-74
2023/12/28 10:39:50;;;;;;;1.15;0.35;;;;;;;-0.60;84.61;100001.03;5044496;28;20599;-75
2023/12/28 10:42:30;;;;;;;1.17;0.00;;;;;;;-0.57;84.46;99995.94;5042028;28;20049;-73
2023/12/28 10:45:05;;;;;;;0.45;0.00;;;;;;;-0.54;84.75;99990.81;5046550;28;20074;-73
2023/12/28 10:47:35;;;;;;;0.95;0.00;;;;;;;-0.54;84.54;99980.53;5038897;28;20499;-73
2023/12/28 10:50:05;;;;;;;1.95;0.08;;;;;;;-0.49;84.30;99978.00;5039515;28;20048;-75
2023/12/28 10:52:33;;;;;;;0.40;0.00;;;;;;;-0.45;84.24;99977.19;5040028;28;20045;-71
2023/12/28 10:55:22;;;;;;;1.25;0.00;;;;;;;-0.43;84.04;99971.22;5041932;28;20444;-71
2023/12/28 10:58:06;;;;;;;2.53;0.13;;;;;;;-0.39;83.94;99951.53;5036596;28;20534;-71
2023/12/28 11:00:37;;;;;;;0.15;0.00;;;;;;;-0.39;84.44;99936.97;5031778;28;20953;-68
2023/12/28 11:03:07;;;;;;;2.28;0.10;;;;;;;-0.36;84.16;99913.88;5042945;28;20133;-69
2023/12/28 11:05:36;;;;;;;2.72;0.00;;;;;;;-0.31;84.02;99915.63;5038821;28;20128;-69
2023/12/28 11:08:06;;;;;;;1.38;0.10;;;;;;;-0.29;84.85;99904.50;5040694;28;20526;-69
2023/12/28 11:10:34;;;;;;;0.43;0.00;;;;;;;-0.27;84.30;99902.81;5041025;28;20055;-69
2023/12/28 11:13:04;;;;;;;0.00;0.00;;;;;;;-0.25;84.57;99908.81;5039531;28;20041;-69
2023/12/28 11:15:32;;;;;;;1.02;0.00;;;;;;;-0.21;84.83;99902.00;5041218;28;20053;-69
2023/12/28 11:17:59;;;;;;;2.22;0.00;;;;;;;-0.18;84.10;99897.72;5041005;28;20049;-69
2023/12/28 11:20:28;;;;;;;1.17;0.00;;;;;;;-0.16;84.19;99880.59;5039842;28;20053;-70
2023/12/28 11:22:57;;;;;;;0.25;0.10;;;;;;;-0.14;84.06;99862.63;5038688;28;20044;-68
2023/12/28 11:25:24;;;;;;;1.08;0.10;;;;;;;-0.09;84.19;99860.91;5042234;28;20139;-69
2023/12/28 11:27:51;;;;;;;0.90;0.10;;;;;;;-0.07;84.69;99848.09;5042276;28;20471;-69
2023/12/28 11:30:19;;;;;;;0.03;0.00;;;;;;;-0.05;84.28;99841.25;5042138;28;20100;-69